Map

Track Data

SID SEASON NUMBER BASIN SUBBASIN NAME ISO_TIME NATURE LAT LON WMO_WIND WMO_PRES WMO_AGENCY TRACK_TYPE DIST2LAND LANDFALL IFLAG USA_AGENCY USA_ATCF_ID USA_LAT USA_LON USA_RECORD USA_STATUS USA_WIND USA_PRES USA_SSHS USA_R34_NE USA_R34_SE USA_R34_SW USA_R34_NW USA_R50_NE USA_R50_SE USA_R50_SW USA_R50_NW USA_R64_NE USA_R64_SE USA_R64_SW USA_R64_NW USA_POCI USA_ROCI USA_RMW USA_EYE TOKYO_LAT TOKYO_LON TOKYO_GRADE TOKYO_WIND TOKYO_PRES TOKYO_R50_DIR TOKYO_R50_LONG TOKYO_R50_SHORT TOKYO_R30_DIR TOKYO_R30_LONG TOKYO_R30_SHORT TOKYO_LAND CMA_LAT CMA_LON CMA_CAT CMA_WIND CMA_PRES HKO_LAT HKO_LON HKO_CAT HKO_WIND HKO_PRES NEWDELHI_LAT NEWDELHI_LON NEWDELHI_GRADE NEWDELHI_WIND NEWDELHI_PRES NEWDELHI_CI NEWDELHI_DP NEWDELHI_POCI REUNION_LAT REUNION_LON REUNION_TYPE REUNION_WIND REUNION_PRES REUNION_TNUM REUNION_CI REUNION_RMW REUNION_R34_NE REUNION_R34_SE REUNION_R34_SW REUNION_R34_NW REUNION_R50_NE REUNION_R50_SE REUNION_R50_SW REUNION_R50_NW REUNION_R64_NE REUNION_R64_SE REUNION_R64_SW REUNION_R64_NW BOM_LAT BOM_LON BOM_TYPE BOM_WIND BOM_PRES BOM_TNUM BOM_CI BOM_RMW BOM_R34_NE BOM_R34_SE BOM_R34_SW BOM_R34_NW BOM_R50_NE BOM_R50_SE BOM_R50_SW BOM_R50_NW BOM_R64_NE BOM_R64_SE BOM_R64_SW BOM_R64_NW BOM_ROCI BOM_POCI BOM_EYE BOM_POS_METHOD BOM_PRES_METHOD NADI_LAT NADI_LON NADI_CAT NADI_WIND NADI_PRES WELLINGTON_LAT WELLINGTON_LON WELLINGTON_WIND WELLINGTON_PRES DS824_LAT DS824_LON DS824_STAGE DS824_WIND DS824_PRES TD9636_LAT TD9636_LON TD9636_STAGE TD9636_WIND TD9636_PRES TD9635_LAT TD9635_LON TD9635_WIND TD9635_PRES TD9635_ROCI NEUMANN_LAT NEUMANN_LON NEUMANN_CLASS NEUMANN_WIND NEUMANN_PRES MLC_LAT MLC_LON MLC_CLASS MLC_WIND MLC_PRES USA_GUST BOM_GUST BOM_GUST_PER REUNION_GUST REUNION_GUST_PER USA_SEAHGT USA_SEARAD_NE USA_SEARAD_SE USA_SEARAD_SW USA_SEARAD_NW STORM_SPEED STORM_DIR
1972331N14091 1972 128 NI BB NOT_NAMED 1972-11-26 03:00:00 NR 13.7000 91.4000 main 396 381 __________O___ -1 13.7000 91.4000 1 4 0
1972331N14091 1972 128 NI BB NOT_NAMED 1972-11-26 06:00:00 TS 13.8789 91.4000 main 381 375 O________OP___ jtwc_io IO151972 13.9000 91.4000 -1 13.9000 91.4000 TC 25 13.8578 91.4000 1 3 4
1972331N14091 1972 128 NI BB NOT_NAMED 1972-11-26 09:00:00 TS 14.0325 91.4000 main 375 361 P________PP___ IO151972 14.0400 91.4000 -1 14.0400 91.4000 TC 25 14.0225 91.4000 1 3 0
1972331N14091 1972 128 NI BB NOT_NAMED 1972-11-26 12:00:00 TS 14.2004 91.4000 main 361 349 O________OP___ jtwc_io IO151972 14.2000 91.4000 -1 14.2000 91.4000 TC 25 14.2009 91.4000 1 4 1
1972331N14091 1972 128 NI BB NOT_NAMED 1972-11-26 15:00:00 TS 14.3950 91.4000 main 349 338 P________PO___ IO151972 14.3925 91.4000 -1 14.3925 91.4000 TC 25 14.4000 91.4000 1 4 357
1972331N14091 1972 128 NI BB NOT_NAMED 1972-11-26 18:00:00 TS 14.6071 91.4000 main 338 328 O________OP___ jtwc_io IO151972 14.6000 91.4000 -1 14.6000 91.4000 TC 25 14.6212 91.4000 1 4 0
1972331N14091 1972 128 NI BB NOT_NAMED 1972-11-26 21:00:00 TS 14.8200 91.4000 main 328 320 P________PP___ IO151972 14.8075 91.4000 -1 14.8075 91.4000 TC 25 14.8450 91.4000 1 4 4
1972331N14091 1972 128 NI BB NOT_NAMED 1972-11-27 00:00:00 TS 15.0154 91.4000 main 320 313 O________OP___ jtwc_io IO151972 15.0000 91.4000 -1 15.0000 91.4000 TC 25 15.0462 91.4000 1 4 2
1972331N14091 1972 128 NI BB NOT_NAMED 1972-11-27 03:00:00 TS 15.1867 91.4000 main 313 309 P________PO___ IO151972 15.1800 91.4000 -1 15.1800 91.4000 TC 25 15.2000 91.4000 1 3 0
1972331N14091 1972 128 NI BB NOT_NAMED 1972-11-27 06:00:00 TS 15.2823 91.4000 main 309 309 O________OP___ jtwc_io IO151972 15.3000 91.4000 -1 15.3000 91.4000 TC 25 15.2469 91.4000 1 1 0
1972331N14091 1972 128 NI BB NOT_NAMED 1972-11-27 09:00:00 TS 15.2933 91.4000 main 309 309 P________PP___ IO151972 15.3150 91.4000 -1 15.3150 91.4000 TC 25 15.2500 91.4000 1 0 0
1972331N14091 1972 128 NI BB NOT_NAMED 1972-11-27 12:00:00 TS 15.2844 91.4000 main 309 309 O________OP___ jtwc_io IO151972 15.3000 91.4000 -1 15.3000 91.4000 TC 25 15.2531 91.4000 1 0 0
1972331N14091 1972 128 NI BB NOT_NAMED 1972-11-27 15:00:00 TS 15.3133 91.4000 main 309 307 P________PO___ IO151972 15.3200 91.4000 -1 15.3200 91.4000 TC 25 15.3000 91.4000 1 1 349
1972331N14091 1972 128 NI BB NOT_NAMED 1972-11-27 18:00:00 TS 15.4071 91.3987 main 307 303 O________OP___ jtwc_io IO151972 15.4000 91.4000 -1 15.4000 91.4000 TC 25 15.4213 91.3960 1 3 354
1972331N14091 1972 128 NI BB NOT_NAMED 1972-11-27 21:00:00 TS 15.5683 91.3975 main 303 300 P________PP___ IO151972 15.5550 91.4000 -1 15.5550 91.4000 TC 25 15.5950 91.3926 1 4 0
1972331N14091 1972 128 NI BB NOT_NAMED 1972-11-28 00:00:00 TS 15.8071 91.3976 main 300 299 O________OP___ jtwc_io IO151972 15.8000 91.4000 -1 15.8000 91.4000 TC 25 15.8213 91.3929 1 5 358
1972331N14091 1972 128 NI BB NOT_NAMED 1972-11-28 03:00:00 TS 16.1133 91.3950 main 299 299 P________PO___ IO151972 16.1200 91.3926 -1 16.1200 91.3926 TC 25 16.1000 91.4000 1 7 2
1972331N14091 1972 128 NI BB NOT_NAMED 1972-11-28 06:00:00 TS 16.4817 91.4019 main 304 304 O________OP___ jtwc_io IO151972 16.5000 91.4000 -1 16.5000 91.4000 TC 25 16.4450 91.4057 1 8 3
1972331N14091 1972 128 NI BB NOT_NAMED 1972-11-28 09:00:00 TS 16.8833 91.4350 main 312 300 P________PP___ IO151972 16.9075 91.4425 -1 16.9075 91.4425 TC 25 16.8350 91.4201 1 8 6
1972331N14091 1972 128 NI BB NOT_NAMED 1972-11-28 12:00:00 TS 17.2775 91.4832 main 300 280 O________OP___ jtwc_io IO151972 17.3000 91.5000 -1 17.3000 91.5000 TC 25 17.2325 91.4495 1 7 7
1972331N14091 1972 128 NI BB NOT_NAMED 1972-11-28 15:00:00 TS 17.6150 91.5284 main 280 253 P________PO___ IO151972 17.6225 91.5426 -1 17.6225 91.5426 TC 25 17.6000 91.5000 1 6 9
1972331N14091 1972 128 NI BB NOT_NAMED 1972-11-28 18:00:00 TS 17.8994 91.5888 main 253 233 O________OP___ jtwc_io IO151972 17.9000 91.6000 -1 17.9000 91.6000 TC 25 17.8981 91.5663 1 6 15
1972331N14091 1972 128 NI BB NOT_NAMED 1972-11-28 21:00:00 TS 18.1633 91.6800 main 229 211 P________PP___ IO151972 18.1650 91.6925 -1 18.1650 91.6925 TC 25 18.1599 91.6551 1 5 21
1972331N14091 1972 128 NI BB NOT_NAMED 1972-11-29 00:00:00 TS 18.3973 91.7888 main 211 194 O________OP___ jtwc_io IO151972 18.4000 91.8000 -1 18.4000 91.8000 TC 25 18.3918 91.7663 1 5 24
1972331N14091 1972 128 NI BB NOT_NAMED 1972-11-29 03:00:00 TS 18.6050 91.8901 main 194 173 P________PO___ IO151972 18.6075 91.8851 -1 18.6075 91.8851 TC 25 18.6000 91.9000 1 5 29
1972331N14091 1972 128 NI BB NOT_NAMED 1972-11-29 06:00:00 TS 18.7962 92.0221 main 173 143 O________OP___ jtwc_io IO151972 18.8000 92.0000 -1 18.8000 92.0000 TC 25 18.7904 92.0552 1 5 38
1972331N14091 1972 128 NI BB NOT_NAMED 1972-11-29 09:00:00 TS 18.9848 92.2001 main 143 113 P________PP___ IO151972 18.9976 92.1799 -1 18.9976 92.1799 TC 25 18.9677 92.2272 1 5 44
1972331N14091 1972 128 NI BB NOT_NAMED 1972-11-29 12:00:00 TS 19.1681 92.4053 main 113 94 O________OP___ jtwc_io IO151972 19.2000 92.4000 -1 19.2000 92.4000 TC 25 19.1361 92.4107 1 5 50
1972331N14091 1972 128 NI BB NOT_NAMED 1972-11-29 15:00:00 NR 19.3000 92.6000 main 94 __________O___ IO151972 -1 TC 19.3000 92.6000 1 5 55

About IBTrACS Database

This database is a web-friendly format of International Best Track Archive for Climate Stewardship (IBTrACS), a global best track data archive curated by NOAA dating back to 1842.

Updated: 2021-10-19